Beattie, KS (66406)

4:18 PM CDT on April 25, 2017 (GMT -0500)
N0NB | | Change Station

Elev 1318 ft 39.91 °N, 96.77 °W | Updated 3 seconds ago

Overcast
Overcast
54.5 °F
Feels Like 54.5 °F
N
8.0
Wind Variable Wind from WNW
Gusts 8.0 mph

Today
High -- | Low -- °F
--% Chance of Precip.
Yesterday
High -- | Low -- °F
Precip. -- in
Pressure 29.51 in
Visibility 10.0 miles
Clouds Mostly Cloudy 3500 ft
Overcast 5000 ft
Dew Point 46 °F
Humidity 73%
Rainfall 0.02 in
Snow Depth Not available.
6:33 AM 8:14 PM
Waning Crescent, 1% visible
METAR KBIE 252055Z AUTO 01014KT 10SM BKN035 OVC050 11/06 A2951 RMK AO2 T01130064
Pressure 29.51 in
Visibility 10.0 miles
Clouds Mostly Cloudy 3500 ft
Overcast 5000 ft
Dew Point 46 °F
Humidity 73%
Rainfall 0.02 in
Snow Depth Not available.
6:33 AM 8:14 PM
Waning Crescent, 1% visible
METAR KBIE 252055Z AUTO 01014KT 10SM BKN035 OVC050 11/06 A2951 RMK AO2 T01130064

Get Severe Weather Alerts

Thanks for signing up!

Be on the lookout for a verification email in your inbox.

You'll start receiving the daily forecast at 8 AM.

×

10-Day Weather Forecast

Almanac

Astronomy

Apr. 25, 2017 Rise Set
Actual Time
Civil Twilight
Nautical Twilight
Astronomical Twilight
Moon
Length of Visible Light
Length of Day
Tomorrow will be .
, % of the Moon is Illuminated

Today's Extremes

State Highs State Lows

Community

WunderPhotos

WunderBlog® & News

Nearby

Air Quality

  Air Quality AQ Index Pollutant
Not available.

Snow Depth

Station Depth Elevation

Earthquake Activity

City Distance Mag. Time & Date
Minimum magnitude displayed is 2.5.

Coastal Water Temperatures

Place Temperature

Stations

Nearby Weather Stations

Station Location Temp. Windchill Dew Point Humidity Wind Precip. Elev Updated Type
                   

Watches & Warnings

There are currently no watches in effect.